sensor_id;sensor_type;location;lat;lon;timestamp;P1;durP1;ratioP1;P2;durP2;ratioP2
22646;SDS011;11490;42.726;23.268;2023-03-01T00:00:38;3.88;;;3.08;;
22646;SDS011;11490;42.726;23.268;2023-03-01T00:03:03;6.05;;;3.00;;
22646;SDS011;11490;42.726;23.268;2023-03-01T00:05:29;2.95;;;2.65;;
22646;SDS011;11490;42.726;23.268;2023-03-01T00:07:54;3.35;;;3.00;;
22646;SDS011;11490;42.726;23.268;2023-03-01T00:10:20;4.45;;;3.42;;
22646;SDS011;11490;42.726;23.268;2023-03-01T00:12:45;4.32;;;3.15;;
22646;SDS011;11490;42.726;23.268;2023-03-01T00:15:11;4.35;;;3.25;;
22646;SDS011;11490;42.726;23.268;2023-03-01T00:17:36;6.50;;;4.38;;
22646;SDS011;11490;42.726;23.268;2023-03-01T00:20:02;4.05;;;3.10;;
22646;SDS011;11490;42.726;23.268;2023-03-01T00:22:28;2.90;;;2.53;;
22646;SDS011;11490;42.726;23.268;2023-03-01T00:24:53;3.10;;;2.85;;
22646;SDS011;11490;42.726;23.268;2023-03-01T00:27:19;4.20;;;3.33;;
22646;SDS011;11490;42.726;23.268;2023-03-01T00:29:44;3.00;;;2.50;;
22646;SDS011;11490;42.726;23.268;2023-03-01T00:32:10;5.18;;;2.95;;
22646;SDS011;11490;42.726;23.268;2023-03-01T00:34:35;4.20;;;3.15;;
22646;SDS011;11490;42.726;23.268;2023-03-01T00:37:00;4.18;;;3.25;;
22646;SDS011;11490;42.726;23.268;2023-03-01T00:39:30;4.57;;;3.50;;
22646;SDS011;11490;42.726;23.268;2023-03-01T00:41:57;4.22;;;2.60;;
22646;SDS011;11490;42.726;23.268;2023-03-01T00:44:22;3.35;;;2.50;;
22646;SDS011;11490;42.726;23.268;2023-03-01T00:46:47;3.40;;;2.63;;
22646;SDS011;11490;42.726;23.268;2023-03-01T00:49:13;2.55;;;2.35;;
22646;SDS011;11490;42.726;23.268;2023-03-01T00:51:39;3.25;;;2.42;;
22646;SDS011;11490;42.726;23.268;2023-03-01T00:54:07;2.95;;;2.30;;
22646;SDS011;11490;42.726;23.268;2023-03-01T00:56:34;2.13;;;1.90;;
22646;SDS011;11490;42.726;23.268;2023-03-01T00:58:59;2.63;;;2.42;;
22646;SDS011;11490;42.726;23.268;2023-03-01T01:01:25;3.28;;;2.63;;
22646;SDS011;11490;42.726;23.268;2023-03-01T01:03:57;2.75;;;2.50;;
22646;SDS011;11490;42.726;23.268;2023-03-01T01:06:29;4.10;;;2.80;;
22646;SDS011;11490;42.726;23.268;2023-03-01T01:08:56;2.42;;;2.15;;
22646;SDS011;11490;42.726;23.268;2023-03-01T01:11:23;2.55;;;2.35;;
22646;SDS011;11490;42.726;23.268;2023-03-01T01:13:50;3.03;;;2.70;;
22646;SDS011;11490;42.726;23.268;2023-03-01T01:16:16;2.45;;;2.25;;
22646;SDS011;11490;42.726;23.268;2023-03-01T01:18:44;2.83;;;2.30;;
22646;SDS011;11490;42.726;23.268;2023-03-01T01:21:11;3.33;;;2.63;;
22646;SDS011;11490;42.726;23.268;2023-03-01T01:23:39;3.33;;;3.03;;
22646;SDS011;11490;42.726;23.268;2023-03-01T01:26:13;2.67;;;2.42;;
22646;SDS011;11490;42.726;23.268;2023-03-01T01:28:40;3.05;;;2.63;;
22646;SDS011;11490;42.726;23.268;2023-03-01T01:31:06;2.50;;;2.28;;
22646;SDS011;11490;42.726;23.268;2023-03-01T01:33:32;2.60;;;2.08;;
22646;SDS011;11490;42.726;23.268;2023-03-01T01:35:58;3.00;;;2.70;;
22646;SDS011;11490;42.726;23.268;2023-03-01T01:38:23;2.92;;;2.63;;
22646;SDS011;11490;42.726;23.268;2023-03-01T01:40:49;2.28;;;2.10;;
22646;SDS011;11490;42.726;23.268;2023-03-01T01:43:27;3.25;;;2.50;;
22646;SDS011;11490;42.726;23.268;2023-03-01T01:45:57;3.30;;;2.53;;
22646;SDS011;11490;42.726;23.268;2023-03-01T01:48:28;2.78;;;2.55;;
22646;SDS011;11490;42.726;23.268;2023-03-01T01:51:05;2.50;;;2.28;;
22646;SDS011;11490;42.726;23.268;2023-03-01T01:53:34;3.20;;;2.75;;
22646;SDS011;11490;42.726;23.268;2023-03-01T01:56:01;2.28;;;2.08;;
22646;SDS011;11490;42.726;23.268;2023-03-01T01:58:28;2.08;;;1.88;;
22646;SDS011;11490;42.726;23.268;2023-03-01T02:00:55;2.65;;;2.45;;
22646;SDS011;11490;42.726;23.268;2023-03-01T02:03:28;2.30;;;2.10;;
22646;SDS011;11490;42.726;23.268;2023-03-01T02:08:46;2.90;;;2.70;;
22646;SDS011;11490;42.726;23.268;2023-03-01T02:11:13;2.28;;;2.03;;
22646;SDS011;11490;42.726;23.268;2023-03-01T02:13:40;2.20;;;2.00;;
22646;SDS011;11490;42.726;23.268;2023-03-01T02:16:09;3.70;;;2.65;;
22646;SDS011;11490;42.726;23.268;2023-03-01T02:18:37;2.40;;;2.20;;
22646;SDS011;11490;42.726;23.268;2023-03-01T02:24:50;4.70;;;2.80;;
22646;SDS011;11490;42.726;23.268;2023-03-01T02:26:57;4.05;;;3.42;;
22646;SDS011;11490;42.726;23.268;2023-03-01T02:29:23;5.28;;;3.22;;
22646;SDS011;11490;42.726;23.268;2023-03-01T02:31:49;3.88;;;2.70;;
22646;SDS011;11490;42.726;23.268;2023-03-01T02:34:20;3.83;;;3.40;;
22646;SDS011;11490;42.726;23.268;2023-03-01T02:36:48;5.03;;;3.15;;
22646;SDS011;11490;42.726;23.268;2023-03-01T02:39:18;4.32;;;3.35;;
22646;SDS011;11490;42.726;23.268;2023-03-01T02:41:51;5.75;;;3.40;;
22646;SDS011;11490;42.726;23.268;2023-03-01T02:44:18;3.60;;;3.22;;
22646;SDS011;11490;42.726;23.268;2023-03-01T02:46:46;5.35;;;3.55;;
22646;SDS011;11490;42.726;23.268;2023-03-01T02:54:57;3.67;;;2.80;;
22646;SDS011;11490;42.726;23.268;2023-03-01T02:57:44;5.88;;;2.80;;
22646;SDS011;11490;42.726;23.268;2023-03-01T03:00:15;4.45;;;3.25;;
22646;SDS011;11490;42.726;23.268;2023-03-01T03:02:46;4.20;;;3.03;;
22646;SDS011;11490;42.726;23.268;2023-03-01T03:05:15;4.63;;;3.78;;
22646;SDS011;11490;42.726;23.268;2023-03-01T03:07:43;3.53;;;3.20;;
22646;SDS011;11490;42.726;23.268;2023-03-01T03:10:11;4.20;;;2.58;;
22646;SDS011;11490;42.726;23.268;2023-03-01T03:12:47;4.65;;;2.97;;
22646;SDS011;11490;42.726;23.268;2023-03-01T03:15:14;3.05;;;2.75;;
22646;SDS011;11490;42.726;23.268;2023-03-01T03:17:41;3.85;;;2.42;;
22646;SDS011;11490;42.726;23.268;2023-03-01T03:20:08;2.55;;;2.35;;
22646;SDS011;11490;42.726;23.268;2023-03-01T03:22:39;3.47;;;2.70;;
22646;SDS011;11490;42.726;23.268;2023-03-01T03:25:06;2.60;;;2.40;;
22646;SDS011;11490;42.726;23.268;2023-03-01T03:27:39;2.85;;;2.53;;
22646;SDS011;11490;42.726;23.268;2023-03-01T03:30:07;5.55;;;3.10;;
22646;SDS011;11490;42.726;23.268;2023-03-01T03:32:35;3.88;;;3.05;;
22646;SDS011;11490;42.726;23.268;2023-03-01T03:35:02;3.70;;;2.90;;
22646;SDS011;11490;42.726;23.268;2023-03-01T03:37:34;3.55;;;2.95;;
22646;SDS011;11490;42.726;23.268;2023-03-01T03:40:22;3.40;;;3.03;;
22646;SDS011;11490;42.726;23.268;2023-03-01T03:42:47;4.65;;;3.33;;
22646;SDS011;11490;42.726;23.268;2023-03-01T03:45:32;4.07;;;2.97;;
22646;SDS011;11490;42.726;23.268;2023-03-01T03:47:58;4.03;;;3.03;;
22646;SDS011;11490;42.726;23.268;2023-03-01T03:50:24;3.50;;;2.83;;
22646;SDS011;11490;42.726;23.268;2023-03-01T03:52:49;3.17;;;2.15;;
22646;SDS011;11490;42.726;23.268;2023-03-01T03:55:15;3.33;;;3.00;;
22646;SDS011;11490;42.726;23.268;2023-03-01T04:03:22;6.47;;;2.40;;
22646;SDS011;11490;42.726;23.268;2023-03-01T04:05:49;3.53;;;2.50;;
22646;SDS011;11490;42.726;23.268;2023-03-01T04:08:16;2.63;;;2.40;;
22646;SDS011;11490;42.726;23.268;2023-03-01T04:10:45;3.47;;;2.83;;
22646;SDS011;11490;42.726;23.268;2023-03-01T04:13:14;3.22;;;2.92;;
22646;SDS011;11490;42.726;23.268;2023-03-01T04:15:45;3.67;;;3.03;;
22646;SDS011;11490;42.726;23.268;2023-03-01T04:18:16;2.35;;;2.15;;
22646;SDS011;11490;42.726;23.268;2023-03-01T04:20:43;2.22;;;1.73;;
22646;SDS011;11490;42.726;23.268;2023-03-01T04:23:12;3.30;;;1.92;;
22646;SDS011;11490;42.726;23.268;2023-03-01T04:25:51;2.15;;;1.98;;
22646;SDS011;11490;42.726;23.268;2023-03-01T04:28:32;1.83;;;1.73;;
22646;SDS011;11490;42.726;23.268;2023-03-01T04:31:02;2.25;;;1.92;;
22646;SDS011;11490;42.726;23.268;2023-03-01T04:33:37;2.88;;;2.22;;
22646;SDS011;11490;42.726;23.268;2023-03-01T04:36:07;1.80;;;1.70;;
22646;SDS011;11490;42.726;23.268;2023-03-01T04:38:34;2.17;;;1.98;;
22646;SDS011;11490;42.726;23.268;2023-03-01T04:41:02;1.95;;;1.85;;
22646;SDS011;11490;42.726;23.268;2023-03-01T04:43:28;2.90;;;2.00;;
22646;SDS011;11490;42.726;23.268;2023-03-01T04:45:53;1.80;;;1.70;;
22646;SDS011;11490;42.726;23.268;2023-03-01T04:48:19;1.85;;;1.75;;
22646;SDS011;11490;42.726;23.268;2023-03-01T04:50:44;2.10;;;1.92;;
22646;SDS011;11490;42.726;23.268;2023-03-01T04:53:09;2.08;;;1.88;;
22646;SDS011;11490;42.726;23.268;2023-03-01T04:55:35;2.05;;;1.85;;
22646;SDS011;11490;42.726;23.268;2023-03-01T04:58:00;2.70;;;2.38;;
22646;SDS011;11490;42.726;23.268;2023-03-01T05:00:26;1.88;;;1.63;;
22646;SDS011;11490;42.726;23.268;2023-03-01T05:02:52;3.60;;;1.83;;
22646;SDS011;11490;42.726;23.268;2023-03-01T05:05:24;2.28;;;2.00;;
22646;SDS011;11490;42.726;23.268;2023-03-01T05:07:58;4.43;;;2.40;;
22646;SDS011;11490;42.726;23.268;2023-03-01T05:10:26;3.28;;;2.33;;
22646;SDS011;11490;42.726;23.268;2023-03-01T05:12:54;2.85;;;2.53;;
22646;SDS011;11490;42.726;23.268;2023-03-01T05:15:22;2.50;;;2.30;;
22646;SDS011;11490;42.726;23.268;2023-03-01T05:17:50;4.50;;;4.05;;
22646;SDS011;11490;42.726;23.268;2023-03-01T05:20:16;3.90;;;2.67;;
22646;SDS011;11490;42.726;23.268;2023-03-01T05:22:42;4.55;;;2.97;;
22646;SDS011;11490;42.726;23.268;2023-03-01T05:25:08;3.40;;;2.70;;
22646;SDS011;11490;42.726;23.268;2023-03-01T05:27:34;3.30;;;2.78;;
22646;SDS011;11490;42.726;23.268;2023-03-01T05:29:59;5.80;;;4.13;;
22646;SDS011;11490;42.726;23.268;2023-03-01T05:32:38;3.95;;;2.63;;
22646;SDS011;11490;42.726;23.268;2023-03-01T05:35:04;2.67;;;2.40;;
22646;SDS011;11490;42.726;23.268;2023-03-01T05:37:30;3.20;;;2.90;;
22646;SDS011;11490;42.726;23.268;2023-03-01T05:39:56;5.80;;;4.10;;
22646;SDS011;11490;42.726;23.268;2023-03-01T05:42:21;6.50;;;4.97;;
22646;SDS011;11490;42.726;23.268;2023-03-01T05:44:46;7.57;;;5.68;;
22646;SDS011;11490;42.726;23.268;2023-03-01T05:47:12;8.05;;;6.20;;
22646;SDS011;11490;42.726;23.268;2023-03-01T05:49:37;11.18;;;7.70;;
22646;SDS011;11490;42.726;23.268;2023-03-01T05:52:02;10.85;;;6.82;;
22646;SDS011;11490;42.726;23.268;2023-03-01T05:54:28;7.72;;;5.68;;
22646;SDS011;11490;42.726;23.268;2023-03-01T05:56:53;7.78;;;5.70;;
22646;SDS011;11490;42.726;23.268;2023-03-01T05:59:18;9.23;;;4.78;;
22646;SDS011;11490;42.726;23.268;2023-03-01T06:01:44;5.05;;;4.18;;
22646;SDS011;11490;42.726;23.268;2023-03-01T06:04:09;4.45;;;3.80;;
22646;SDS011;11490;42.726;23.268;2023-03-01T06:06:35;7.13;;;3.80;;
22646;SDS011;11490;42.726;23.268;2023-03-01T06:09:02;6.40;;;4.45;;
22646;SDS011;11490;42.726;23.268;2023-03-01T06:11:28;5.65;;;3.95;;
22646;SDS011;11490;42.726;23.268;2023-03-01T06:13:54;4.72;;;3.38;;
22646;SDS011;11490;42.726;23.268;2023-03-01T06:16:19;6.22;;;3.83;;
22646;SDS011;11490;42.726;23.268;2023-03-01T06:18:44;8.05;;;5.18;;
22646;SDS011;11490;42.726;23.268;2023-03-01T06:21:10;5.80;;;4.18;;
22646;SDS011;11490;42.726;23.268;2023-03-01T06:23:35;4.65;;;3.40;;
22646;SDS011;11490;42.726;23.268;2023-03-01T06:26:04;6.75;;;3.63;;
22646;SDS011;11490;42.726;23.268;2023-03-01T06:28:36;7.00;;;4.32;;
22646;SDS011;11490;42.726;23.268;2023-03-01T06:31:01;5.22;;;3.95;;
22646;SDS011;11490;42.726;23.268;2023-03-01T06:33:27;5.65;;;4.40;;
22646;SDS011;11490;42.726;23.268;2023-03-01T06:35:55;5.70;;;4.25;;
22646;SDS011;11490;42.726;23.268;2023-03-01T06:38:21;4.70;;;3.58;;
22646;SDS011;11490;42.726;23.268;2023-03-01T06:40:54;5.57;;;3.55;;
22646;SDS011;11490;42.726;23.268;2023-03-01T06:43:21;6.97;;;4.75;;
22646;SDS011;11490;42.726;23.268;2023-03-01T06:46:03;7.13;;;4.30;;
22646;SDS011;11490;42.726;23.268;2023-03-01T06:48:30;7.68;;;5.22;;
22646;SDS011;11490;42.726;23.268;2023-03-01T06:50:57;7.70;;;4.00;;
22646;SDS011;11490;42.726;23.268;2023-03-01T06:53:28;6.13;;;3.83;;
22646;SDS011;11490;42.726;23.268;2023-03-01T06:55:54;6.63;;;5.05;;
22646;SDS011;11490;42.726;23.268;2023-03-01T06:58:20;8.73;;;5.03;;
22646;SDS011;11490;42.726;23.268;2023-03-01T07:00:46;9.65;;;5.28;;
22646;SDS011;11490;42.726;23.268;2023-03-01T07:03:11;5.40;;;4.18;;
22646;SDS011;11490;42.726;23.268;2023-03-01T07:05:37;9.32;;;5.95;;
22646;SDS011;11490;42.726;23.268;2023-03-01T07:08:02;5.07;;;4.30;;
22646;SDS011;11490;42.726;23.268;2023-03-01T07:10:28;6.22;;;3.67;;
22646;SDS011;11490;42.726;23.268;2023-03-01T07:13:05;9.00;;;6.38;;
22646;SDS011;11490;42.726;23.268;2023-03-01T07:15:31;13.02;;;7.82;;
22646;SDS011;11490;42.726;23.268;2023-03-01T07:17:57;9.13;;;5.57;;
22646;SDS011;11490;42.726;23.268;2023-03-01T07:20:23;21.20;;;11.82;;
22646;SDS011;11490;42.726;23.268;2023-03-01T07:22:50;20.20;;;11.23;;
22646;SDS011;11490;42.726;23.268;2023-03-01T07:25:16;7.97;;;5.50;;
22646;SDS011;11490;42.726;23.268;2023-03-01T07:27:42;8.15;;;6.05;;
22646;SDS011;11490;42.726;23.268;2023-03-01T07:30:07;6.90;;;5.13;;
22646;SDS011;11490;42.726;23.268;2023-03-01T07:32:34;5.25;;;4.15;;
22646;SDS011;11490;42.726;23.268;2023-03-01T07:35:03;4.10;;;3.65;;
22646;SDS011;11490;42.726;23.268;2023-03-01T07:37:29;6.00;;;3.67;;
22646;SDS011;11490;42.726;23.268;2023-03-01T07:39:54;6.45;;;4.80;;
22646;SDS011;11490;42.726;23.268;2023-03-01T07:42:19;3.55;;;3.25;;
22646;SDS011;11490;42.726;23.268;2023-03-01T07:44:48;4.50;;;3.60;;
22646;SDS011;11490;42.726;23.268;2023-03-01T07:47:13;3.67;;;3.10;;
22646;SDS011;11490;42.726;23.268;2023-03-01T07:49:39;4.35;;;3.08;;
22646;SDS011;11490;42.726;23.268;2023-03-01T07:52:04;4.78;;;3.53;;
22646;SDS011;11490;42.726;23.268;2023-03-01T07:54:30;4.13;;;3.28;;
22646;SDS011;11490;42.726;23.268;2023-03-01T07:56:56;4.53;;;3.60;;
22646;SDS011;11490;42.726;23.268;2023-03-01T07:59:26;8.40;;;4.78;;
22646;SDS011;11490;42.726;23.268;2023-03-01T08:01:54;6.25;;;4.28;;
22646;SDS011;11490;42.726;23.268;2023-03-01T08:04:20;5.72;;;5.05;;
22646;SDS011;11490;42.726;23.268;2023-03-01T08:06:46;4.72;;;3.92;;
22646;SDS011;11490;42.726;23.268;2023-03-01T08:09:12;6.15;;;4.53;;
22646;SDS011;11490;42.726;23.268;2023-03-01T08:11:37;4.22;;;3.70;;
22646;SDS011;11490;42.726;23.268;2023-03-01T08:14:03;2.47;;;2.28;;
22646;SDS011;11490;42.726;23.268;2023-03-01T08:16:28;4.53;;;3.28;;
22646;SDS011;11490;42.726;23.268;2023-03-01T08:19:03;4.10;;;3.25;;
22646;SDS011;11490;42.726;23.268;2023-03-01T08:21:35;4.10;;;2.95;;
22646;SDS011;11490;42.726;23.268;2023-03-01T08:27:14;7.82;;;3.90;;
22646;SDS011;11490;42.726;23.268;2023-03-01T08:30:15;4.75;;;3.17;;
22646;SDS011;11490;42.726;23.268;2023-03-01T08:36:04;4.95;;;3.53;;
22646;SDS011;11490;42.726;23.268;2023-03-01T08:38:47;3.85;;;3.40;;
22646;SDS011;11490;42.726;23.268;2023-03-01T08:41:20;5.90;;;3.42;;
22646;SDS011;11490;42.726;23.268;2023-03-01T08:43:48;3.80;;;3.40;;
22646;SDS011;11490;42.726;23.268;2023-03-01T08:46:50;3.00;;;2.70;;
22646;SDS011;11490;42.726;23.268;2023-03-01T08:49:20;5.93;;;3.00;;
22646;SDS011;11490;42.726;23.268;2023-03-01T08:51:55;3.33;;;2.90;;
22646;SDS011;11490;42.726;23.268;2023-03-01T08:54:24;5.55;;;3.75;;
22646;SDS011;11490;42.726;23.268;2023-03-01T08:57:15;4.88;;;3.33;;
22646;SDS011;11490;42.726;23.268;2023-03-01T08:59:51;2.63;;;2.40;;
22646;SDS011;11490;42.726;23.268;2023-03-01T09:02:33;3.78;;;2.60;;
22646;SDS011;11490;42.726;23.268;2023-03-01T09:05:04;12.25;;;3.13;;
22646;SDS011;11490;42.726;23.268;2023-03-01T09:07:35;3.10;;;2.80;;
22646;SDS011;11490;42.726;23.268;2023-03-01T09:10:00;4.43;;;4.03;;
22646;SDS011;11490;42.726;23.268;2023-03-01T09:12:30;5.05;;;3.35;;
22646;SDS011;11490;42.726;23.268;2023-03-01T09:14:58;3.90;;;3.08;;
22646;SDS011;11490;42.726;23.268;2023-03-01T09:17:23;3.30;;;3.00;;
22646;SDS011;11490;42.726;23.268;2023-03-01T09:19:49;10.85;;;3.25;;
22646;SDS011;11490;42.726;23.268;2023-03-01T09:22:14;2.90;;;2.60;;
22646;SDS011;11490;42.726;23.268;2023-03-01T09:24:54;2.83;;;2.58;;
22646;SDS011;11490;42.726;23.268;2023-03-01T09:27:21;5.18;;;3.17;;
22646;SDS011;11490;42.726;23.268;2023-03-01T09:29:47;4.50;;;2.78;;
22646;SDS011;11490;42.726;23.268;2023-03-01T09:32:16;4.05;;;3.35;;
22646;SDS011;11490;42.726;23.268;2023-03-01T09:34:41;2.78;;;2.55;;
22646;SDS011;11490;42.726;23.268;2023-03-01T09:37:26;3.90;;;2.83;;
22646;SDS011;11490;42.726;23.268;2023-03-01T09:39:52;3.28;;;2.50;;
22646;SDS011;11490;42.726;23.268;2023-03-01T09:42:17;5.97;;;2.63;;
22646;SDS011;11490;42.726;23.268;2023-03-01T09:44:45;4.30;;;3.15;;
22646;SDS011;11490;42.726;23.268;2023-03-01T09:47:16;2.70;;;2.50;;
22646;SDS011;11490;42.726;23.268;2023-03-01T09:53:01;3.15;;;2.85;;
22646;SDS011;11490;42.726;23.268;2023-03-01T10:04:00;5.05;;;3.53;;
22646;SDS011;11490;42.726;23.268;2023-03-01T10:09:15;3.65;;;2.15;;
22646;SDS011;11490;42.726;23.268;2023-03-01T10:11:47;5.20;;;3.20;;
22646;SDS011;11490;42.726;23.268;2023-03-01T10:19:55;3.08;;;2.53;;
22646;SDS011;11490;42.726;23.268;2023-03-01T10:22:41;2.58;;;2.22;;
22646;SDS011;11490;42.726;23.268;2023-03-01T10:25:08;6.18;;;2.05;;
22646;SDS011;11490;42.726;23.268;2023-03-01T10:27:59;3.47;;;2.78;;
22646;SDS011;11490;42.726;23.268;2023-03-01T10:30:39;3.58;;;2.25;;
22646;SDS011;11490;42.726;23.268;2023-03-01T10:33:22;3.42;;;2.05;;
22646;SDS011;11490;42.726;23.268;2023-03-01T10:36:06;3.20;;;2.83;;
22646;SDS011;11490;42.726;23.268;2023-03-01T10:38:43;17.38;;;9.43;;
22646;SDS011;11490;42.726;23.268;2023-03-01T10:41:23;2.00;;;1.80;;
22646;SDS011;11490;42.726;23.268;2023-03-01T10:43:54;2.55;;;2.33;;
22646;SDS011;11490;42.726;23.268;2023-03-01T10:46:36;9.77;;;6.25;;
22646;SDS011;11490;42.726;23.268;2023-03-01T10:49:16;17.80;;;8.10;;
22646;SDS011;11490;42.726;23.268;2023-03-01T10:51:43;4.25;;;2.70;;
22646;SDS011;11490;42.726;23.268;2023-03-01T10:54:18;3.67;;;2.63;;
22646;SDS011;11490;42.726;23.268;2023-03-01T10:57:02;4.13;;;3.25;;
22646;SDS011;11490;42.726;23.268;2023-03-01T10:59:35;2.58;;;2.15;;
22646;SDS011;11490;42.726;23.268;2023-03-01T11:05:01;3.65;;;2.80;;
22646;SDS011;11490;42.726;23.268;2023-03-01T11:07:57;2.38;;;2.10;;
22646;SDS011;11490;42.726;23.268;2023-03-01T11:10:25;3.38;;;2.40;;
22646;SDS011;11490;42.726;23.268;2023-03-01T11:13:09;2.72;;;2.20;;
22646;SDS011;11490;42.726;23.268;2023-03-01T11:15:40;3.28;;;2.05;;
22646;SDS011;11490;42.726;23.268;2023-03-01T11:18:17;3.55;;;2.70;;
22646;SDS011;11490;42.726;23.268;2023-03-01T11:20:45;4.63;;;2.80;;
22646;SDS011;11490;42.726;23.268;2023-03-01T11:23:14;2.28;;;1.95;;
22646;SDS011;11490;42.726;23.268;2023-03-01T11:25:46;2.80;;;2.40;;
22646;SDS011;11490;42.726;23.268;2023-03-01T11:28:19;3.20;;;2.58;;
22646;SDS011;11490;42.726;23.268;2023-03-01T11:36:19;3.05;;;2.40;;
22646;SDS011;11490;42.726;23.268;2023-03-01T11:38:47;4.40;;;2.58;;
22646;SDS011;11490;42.726;23.268;2023-03-01T11:41:17;2.55;;;2.22;;
22646;SDS011;11490;42.726;23.268;2023-03-01T11:43:57;4.10;;;2.85;;
22646;SDS011;11490;42.726;23.268;2023-03-01T11:49:07;2.45;;;2.00;;
22646;SDS011;11490;42.726;23.268;2023-03-01T11:52:00;2.42;;;2.05;;
22646;SDS011;11490;42.726;23.268;2023-03-01T11:54:57;1.75;;;1.65;;
22646;SDS011;11490;42.726;23.268;2023-03-01T12:16:48;3.28;;;2.92;;
22646;SDS011;11490;42.726;23.268;2023-03-01T12:24:51;3.58;;;2.42;;
22646;SDS011;11490;42.726;23.268;2023-03-01T12:27:36;3.13;;;2.45;;
22646;SDS011;11490;42.726;23.268;2023-03-01T12:30:16;2.10;;;1.90;;
22646;SDS011;11490;42.726;23.268;2023-03-01T12:38:32;2.45;;;2.25;;
22646;SDS011;11490;42.726;23.268;2023-03-01T12:44:09;2.13;;;1.92;;
22646;SDS011;11490;42.726;23.268;2023-03-01T12:49:34;3.15;;;2.63;;
22646;SDS011;11490;42.726;23.268;2023-03-01T12:55:01;3.20;;;2.40;;
22646;SDS011;11490;42.726;23.268;2023-03-01T12:57:34;2.22;;;2.03;;
22646;SDS011;11490;42.726;23.268;2023-03-01T13:00:29;2.28;;;1.88;;
22646;SDS011;11490;42.726;23.268;2023-03-01T13:06:11;4.03;;;2.58;;
22646;SDS011;11490;42.726;23.268;2023-03-01T13:08:48;2.88;;;2.63;;
22646;SDS011;11490;42.726;23.268;2023-03-01T13:11:21;5.35;;;2.90;;
22646;SDS011;11490;42.726;23.268;2023-03-01T13:13:48;4.60;;;3.08;;
22646;SDS011;11490;42.726;23.268;2023-03-01T13:19:11;5.03;;;3.30;;
22646;SDS011;11490;42.726;23.268;2023-03-01T13:21:40;4.22;;;2.55;;
22646;SDS011;11490;42.726;23.268;2023-03-01T13:37:40;7.78;;;4.30;;
22646;SDS011;11490;42.726;23.268;2023-03-01T13:42:42;4.97;;;3.50;;
22646;SDS011;11490;42.726;23.268;2023-03-01T13:48:02;4.90;;;3.80;;
22646;SDS011;11490;42.726;23.268;2023-03-01T13:53:36;3.85;;;3.45;;
22646;SDS011;11490;42.726;23.268;2023-03-01T13:56:19;7.45;;;4.32;;
22646;SDS011;11490;42.726;23.268;2023-03-01T14:02:02;4.40;;;3.33;;
22646;SDS011;11490;42.726;23.268;2023-03-01T14:04:59;4.68;;;2.88;;
22646;SDS011;11490;42.726;23.268;2023-03-01T14:07:53;4.35;;;2.95;;
22646;SDS011;11490;42.726;23.268;2023-03-01T14:10:44;4.45;;;3.25;;
22646;SDS011;11490;42.726;23.268;2023-03-01T14:13:25;4.97;;;3.95;;
22646;SDS011;11490;42.726;23.268;2023-03-01T14:18:29;5.63;;;3.22;;
22646;SDS011;11490;42.726;23.268;2023-03-01T14:21:17;4.85;;;2.70;;
22646;SDS011;11490;42.726;23.268;2023-03-01T14:23:42;2.75;;;2.05;;
22646;SDS011;11490;42.726;23.268;2023-03-01T14:26:08;3.05;;;2.70;;
22646;SDS011;11490;42.726;23.268;2023-03-01T14:28:37;3.30;;;2.72;;
22646;SDS011;11490;42.726;23.268;2023-03-01T14:31:36;4.20;;;2.90;;
22646;SDS011;11490;42.726;23.268;2023-03-01T14:33:55;3.83;;;3.10;;
22646;SDS011;11490;42.726;23.268;2023-03-01T14:36:25;3.00;;;2.70;;
22646;SDS011;11490;42.726;23.268;2023-03-01T14:38:53;3.42;;;2.53;;
22646;SDS011;11490;42.726;23.268;2023-03-01T14:41:20;2.92;;;2.45;;
22646;SDS011;11490;42.726;23.268;2023-03-01T14:43:50;7.50;;;3.35;;
22646;SDS011;11490;42.726;23.268;2023-03-01T14:46:37;4.95;;;3.35;;
22646;SDS011;11490;42.726;23.268;2023-03-01T14:51:30;5.70;;;3.55;;
22646;SDS011;11490;42.726;23.268;2023-03-01T14:53:56;8.05;;;4.65;;
22646;SDS011;11490;42.726;23.268;2023-03-01T14:56:21;5.13;;;4.22;;
22646;SDS011;11490;42.726;23.268;2023-03-01T14:58:50;15.40;;;6.05;;
22646;SDS011;11490;42.726;23.268;2023-03-01T15:01:19;4.30;;;3.83;;
22646;SDS011;11490;42.726;23.268;2023-03-01T15:03:46;3.97;;;3.28;;
22646;SDS011;11490;42.726;23.268;2023-03-01T15:06:17;5.32;;;3.97;;
22646;SDS011;11490;42.726;23.268;2023-03-01T15:08:48;5.82;;;3.97;;
22646;SDS011;11490;42.726;23.268;2023-03-01T15:13:48;4.88;;;3.65;;
22646;SDS011;11490;42.726;23.268;2023-03-01T15:16:15;4.60;;;2.90;;
22646;SDS011;11490;42.726;23.268;2023-03-01T15:18:45;5.32;;;3.97;;
22646;SDS011;11490;42.726;23.268;2023-03-01T15:21:17;3.17;;;2.88;;
22646;SDS011;11490;42.726;23.268;2023-03-01T15:23:50;3.70;;;2.92;;
22646;SDS011;11490;42.726;23.268;2023-03-01T15:26:23;3.50;;;3.10;;
22646;SDS011;11490;42.726;23.268;2023-03-01T15:28:51;4.53;;;3.25;;
22646;SDS011;11490;42.726;23.268;2023-03-01T15:31:23;5.63;;;3.20;;
22646;SDS011;11490;42.726;23.268;2023-03-01T15:33:50;4.97;;;3.65;;
22646;SDS011;11490;42.726;23.268;2023-03-01T15:36:30;6.70;;;4.65;;
22646;SDS011;11490;42.726;23.268;2023-03-01T15:38:59;5.47;;;4.45;;
22646;SDS011;11490;42.726;23.268;2023-03-01T15:41:32;8.73;;;4.85;;
22646;SDS011;11490;42.726;23.268;2023-03-01T15:44:15;6.65;;;5.03;;
22646;SDS011;11490;42.726;23.268;2023-03-01T15:46:54;9.07;;;6.22;;
22646;SDS011;11490;42.726;23.268;2023-03-01T15:52:04;7.15;;;4.60;;
22646;SDS011;11490;42.726;23.268;2023-03-01T15:54:35;4.35;;;3.45;;
22646;SDS011;11490;42.726;23.268;2023-03-01T15:57:02;5.53;;;4.53;;
22646;SDS011;11490;42.726;23.268;2023-03-01T15:59:28;5.47;;;3.28;;
22646;SDS011;11490;42.726;23.268;2023-03-01T16:01:53;5.10;;;3.88;;
22646;SDS011;11490;42.726;23.268;2023-03-01T16:04:19;5.30;;;3.78;;
22646;SDS011;11490;42.726;23.268;2023-03-01T16:06:48;3.78;;;2.85;;
22646;SDS011;11490;42.726;23.268;2023-03-01T16:09:23;4.55;;;3.58;;
22646;SDS011;11490;42.726;23.268;2023-03-01T16:11:50;6.60;;;4.22;;
22646;SDS011;11490;42.726;23.268;2023-03-01T16:14:16;6.38;;;4.13;;
22646;SDS011;11490;42.726;23.268;2023-03-01T16:16:42;13.00;;;5.57;;
22646;SDS011;11490;42.726;23.268;2023-03-01T16:19:08;6.43;;;5.38;;
22646;SDS011;11490;42.726;23.268;2023-03-01T16:21:35;5.55;;;4.35;;
22646;SDS011;11490;42.726;23.268;2023-03-01T16:24:01;9.55;;;5.45;;
22646;SDS011;11490;42.726;23.268;2023-03-01T16:26:26;20.02;;;9.23;;
22646;SDS011;11490;42.726;23.268;2023-03-01T16:28:54;8.32;;;4.68;;
22646;SDS011;11490;42.726;23.268;2023-03-01T16:31:23;4.03;;;3.17;;
22646;SDS011;11490;42.726;23.268;2023-03-01T16:33:52;6.07;;;3.72;;
22646;SDS011;11490;42.726;23.268;2023-03-01T16:36:19;8.65;;;4.38;;
22646;SDS011;11490;42.726;23.268;2023-03-01T16:38:45;4.93;;;3.42;;
22646;SDS011;11490;42.726;23.268;2023-03-01T16:41:11;5.32;;;3.80;;
22646;SDS011;11490;42.726;23.268;2023-03-01T16:43:39;8.70;;;4.72;;
22646;SDS011;11490;42.726;23.268;2023-03-01T16:46:13;7.35;;;4.25;;
22646;SDS011;11490;42.726;23.268;2023-03-01T16:48:41;7.78;;;4.03;;
22646;SDS011;11490;42.726;23.268;2023-03-01T16:51:06;7.00;;;4.82;;
22646;SDS011;11490;42.726;23.268;2023-03-01T16:53:33;6.95;;;4.00;;
22646;SDS011;11490;42.726;23.268;2023-03-01T16:56:00;5.47;;;3.95;;
22646;SDS011;11490;42.726;23.268;2023-03-01T16:58:27;9.63;;;4.97;;
22646;SDS011;11490;42.726;23.268;2023-03-01T17:00:53;7.95;;;5.72;;
22646;SDS011;11490;42.726;23.268;2023-03-01T17:03:20;7.97;;;4.28;;
22646;SDS011;11490;42.726;23.268;2023-03-01T17:05:46;9.75;;;5.50;;